Time;durP1;ratioP1;P1;durP2;ratioP2;P2;SDS_P1;SDS_P2;PMS_P1;PMS_P2;Temp;Humidity;BMP_temperature;BMP_pressure;BME280_temperature;BME280_humidity;BME280_pressure;Samples;Min_cycle;Max_cycle;Signal;HPM_P1;HPM_P2
2022/09/17 02:55:28;;;;;;;;;;;19.30;59.30;;;;;;6063191;23;19929;-67
2022/09/17 02:57:58;;;;;;;;;;;19.40;60.80;;;;;;6037967;23;20343;-67
2022/09/17 03:00:27;;;;;;;;;;;19.40;60.20;;;;;;6038890;23;19913;-67
2022/09/17 03:02:56;;;;;;;;;;;19.30;59.30;;;;;;6038307;23;19965;-67
2022/09/17 03:05:23;;;;;;;;;;;19.30;59.30;;;;;;6036831;23;20310;-68
2022/09/17 03:07:49;;;;;;;;;;;19.30;59.20;;;;;;6038281;23;19914;-67
2022/09/17 03:10:16;;;;;;;;;;;19.40;59.10;;;;;;6038280;23;20311;-68
2022/09/17 03:12:43;;;;;;;;;;;19.40;57.80;;;;;;6037417;23;19940;-68
2022/09/17 03:15:09;;;;;;;;;;;19.50;60.20;;;;;;6038712;23;19909;-68
2022/09/17 03:17:36;;;;;;;;;;;19.50;58.80;;;;;;6064000;23;20295;-68
2022/09/17 03:20:03;;;;;;;;;;;19.50;59.20;;;;;;6038003;23;19917;-69
2022/09/17 03:22:30;;;;;;;;;;;19.50;57.20;;;;;;6038944;23;19939;-69
2022/09/17 03:24:56;;;;;;;;;;;19.50;55.30;;;;;;6062368;23;19913;-69
2022/09/17 03:27:23;;;;;;;;;;;19.40;56.90;;;;;;6062342;23;19937;-70
2022/09/17 03:29:49;;;;;;;;;;;19.20;60.90;;;;;;6064030;23;19922;-70
2022/09/17 03:32:16;;;;;;;;;;;19.00;62.90;;;;;;6064017;23;19906;-69
2022/09/17 03:34:42;;;;;;;;;;;18.90;63.40;;;;;;6063869;23;19910;-69
2022/09/17 03:37:09;;;;;;;;;;;18.90;63.30;;;;;;6063923;23;19946;-69
2022/09/17 03:39:36;;;;;;;;;;;19.00;64.30;;;;;;6062494;23;19910;-71
2022/09/17 03:42:02;;;;;;;;;;;19.00;64.60;;;;;;6062014;23;20400;-71
2022/09/17 03:44:29;;;;;;;;;;;19.10;62.60;;;;;;6063420;23;19909;-70
2022/09/17 03:46:55;;;;;;;;;;;19.10;61.10;;;;;;6062094;23;19945;-69
2022/09/17 03:49:22;;;;;;;;;;;19.20;59.60;;;;;;6062144;23;19918;-70
2022/09/17 03:51:49;;;;;;;;;;;19.20;57.70;;;;;;6062750;23;19933;-70
2022/09/17 03:54:16;;;;;;;;;;;19.30;58.00;;;;;;6061293;23;19988;-71
2022/09/17 03:56:43;;;;;;;;;;;19.30;57.40;;;;;;6060230;23;20321;-71
2022/09/17 03:59:09;;;;;;;;;;;19.30;57.30;;;;;;6062414;23;20206;-71
2022/09/17 04:01:36;;;;;;;;;;;19.30;56.80;;;;;;6062987;23;19988;-70
2022/09/17 04:04:03;;;;;;;;;;;19.40;53.40;;;;;;6063242;23;20024;-70
2022/09/17 04:06:29;;;;;;;;;;;19.40;54.70;;;;;;6062720;23;19914;-68
2022/09/17 04:08:56;;;;;;;;;;;19.50;54.60;;;;;;6061999;23;19917;-69
2022/09/17 04:11:22;;;;;;;;;;;19.50;54.40;;;;;;6063197;23;19917;-69
2022/09/17 04:13:49;;;;;;;;;;;19.60;53.00;;;;;;6063396;23;19921;-69
2022/09/17 04:16:15;;;;;;;;;;;19.60;53.40;;;;;;6063154;23;19945;-69
2022/09/17 04:18:42;;;;;;;;;;;19.60;52.90;;;;;;6061965;23;19921;-69
2022/09/17 04:21:09;;;;;;;;;;;19.60;51.70;;;;;;6061275;23;19909;-69
2022/09/17 04:23:35;;;;;;;;;;;19.60;51.40;;;;;;6037725;23;19912;-69
2022/09/17 04:26:02;;;;;;;;;;;19.50;52.30;;;;;;6060096;23;19917;-70
2022/09/17 04:28:28;;;;;;;;;;;19.60;53.10;;;;;;6061840;23;19918;-71
2022/09/17 04:30:56;;;;;;;;;;;19.50;53.60;;;;;;6061759;23;19909;-69
2022/09/17 04:33:22;;;;;;;;;;;19.50;53.70;;;;;;6062195;23;19914;-70
2022/09/17 04:35:49;;;;;;;;;;;19.50;51.80;;;;;;6062206;23;19910;-70
2022/09/17 04:38:17;;;;;;;;;;;19.50;51.80;;;;;;6061051;23;19910;-69
2022/09/17 04:40:45;;;;;;;;;;;19.60;52.20;;;;;;6027218;23;19905;-68
2022/09/17 04:43:11;;;;;;;;;;;19.60;51.30;;;;;;6061939;23;20238;-68
2022/09/17 04:45:38;;;;;;;;;;;19.60;51.10;;;;;;6061029;23;19905;-68
2022/09/17 04:48:05;;;;;;;;;;;19.50;50.40;;;;;;6063058;23;19914;-68
2022/09/17 04:50:31;;;;;;;;;;;19.50;51.00;;;;;;6063643;23;19988;-71
2022/09/17 04:52:58;;;;;;;;;;;19.60;51.20;;;;;;6064372;23;19920;-69
2022/09/17 04:55:26;;;;;;;;;;;19.70;49.80;;;;;;6063678;23;19992;-69
2022/09/17 04:57:52;;;;;;;;;;;19.70;48.50;;;;;;6063800;23;20245;-69
2022/09/17 05:00:19;;;;;;;;;;;19.80;47.50;;;;;;6039199;23;19913;-69
2022/09/17 05:02:46;;;;;;;;;;;19.80;47.60;;;;;;6061736;23;19919;-69
2022/09/17 05:05:13;;;;;;;;;;;19.90;47.60;;;;;;6063530;23;19916;-68
2022/09/17 05:07:40;;;;;;;;;;;19.90;47.10;;;;;;6063503;23;19918;-68
2022/09/17 05:10:07;;;;;;;;;;;19.90;46.40;;;;;;6062091;23;19929;-69
2022/09/17 05:12:33;;;;;;;;;;;19.90;46.90;;;;;;6063964;23;19909;-69
2022/09/17 05:15:00;;;;;;;;;;;19.90;47.50;;;;;;6064046;23;20348;-69
2022/09/17 05:17:27;;;;;;;;;;;19.90;47.30;;;;;;6063274;23;19989;-68
2022/09/17 05:19:53;;;;;;;;;;;19.90;47.50;;;;;;6063380;23;20249;-68
2022/09/17 05:22:20;;;;;;;;;;;20.00;47.60;;;;;;6063795;23;20356;-69
2022/09/17 06:12:07;;;;;;;;;;;19.80;44.20;;;;;;6063330;23;19933;-69
2022/09/17 06:14:34;;;;;;;;;;;19.80;44.90;;;;;;6062310;23;19913;-68
2022/09/17 06:17:01;;;;;;;;;;;19.70;45.10;;;;;;6062941;23;19906;-68
2022/09/17 06:19:27;;;;;;;;;;;19.70;45.00;;;;;;6063148;23;19906;-69
2022/09/17 06:21:54;;;;;;;;;;;19.80;45.30;;;;;;6064213;23;19910;-69
2022/09/17 06:24:20;;;;;;;;;;;19.80;45.20;;;;;;6038407;23;20351;-69
2022/09/17 06:26:47;;;;;;;;;;;19.80;43.60;;;;;;6060717;23;19906;-70
2022/09/17 06:29:14;;;;;;;;;;;19.80;43.60;;;;;;6063349;23;19918;-70
2022/09/17 06:31:43;;;;;;;;;;;19.70;42.50;;;;;;6063767;23;19920;-69
2022/09/17 06:34:10;;;;;;;;;;;19.70;42.40;;;;;;6062064;23;19905;-69
2022/09/17 06:36:36;;;;;;;;;;;19.70;42.90;;;;;;6062555;23;19915;-69
2022/09/17 06:39:03;;;;;;;;;;;19.60;42.00;;;;;;6038253;23;20253;-68
2022/09/17 06:41:30;;;;;;;;;;;19.60;42.60;;;;;;6058136;23;19913;-68
2022/09/17 06:43:56;;;;;;;;;;;19.50;43.20;;;;;;6062665;23;19913;-68
2022/09/17 06:46:23;;;;;;;;;;;19.50;43.10;;;;;;6062924;23;20202;-67
2022/09/17 06:48:49;;;;;;;;;;;19.50;43.00;;;;;;6063913;23;19921;-69
2022/09/17 06:51:16;;;;;;;;;;;19.50;43.40;;;;;;6062891;23;20298;-68
2022/09/17 06:53:42;;;;;;;;;;;19.50;43.50;;;;;;6061720;23;20029;-68
2022/09/17 06:56:09;;;;;;;;;;;19.50;44.50;;;;;;6062563;23;19910;-69
2022/09/17 06:58:36;;;;;;;;;;;19.50;45.20;;;;;;6061539;23;19925;-69
2022/09/17 07:01:02;;;;;;;;;;;19.40;45.20;;;;;;6063567;23;19921;-68
2022/09/17 07:03:29;;;;;;;;;;;19.40;44.70;;;;;;6064195;23;19910;-68
2022/09/17 07:05:56;;;;;;;;;;;19.40;45.10;;;;;;6062116;23;20521;-68
2022/09/17 07:08:23;;;;;;;;;;;19.40;44.90;;;;;;6062044;23;19918;-69
2022/09/17 07:10:49;;;;;;;;;;;19.40;45.10;;;;;;6062899;23;19957;-69
2022/09/17 07:13:16;;;;;;;;;;;19.30;45.30;;;;;;6063638;23;19910;-67
2022/09/17 07:15:42;;;;;;;;;;;19.30;45.80;;;;;;6064384;23;19940;-67
2022/09/17 07:18:10;;;;;;;;;;;19.20;46.10;;;;;;6063888;23;19914;-67
2022/09/17 07:20:37;;;;;;;;;;;19.10;45.20;;;;;;6061035;23;19986;-69
2022/09/17 07:23:04;;;;;;;;;;;19.00;45.00;;;;;;6062838;23;19910;-69
2022/09/17 07:25:30;;;;;;;;;;;18.90;45.20;;;;;;6034872;23;19909;-69
2022/09/17 07:27:58;;;;;;;;;;;18.90;46.20;;;;;;6063020;23;19913;-68
2022/09/17 07:30:25;;;;;;;;;;;18.90;46.60;;;;;;6062861;23;19965;-68
2022/09/17 07:32:51;;;;;;;;;;;18.80;47.00;;;;;;6060650;23;20321;-69
2022/09/17 07:35:18;;;;;;;;;;;18.80;46.80;;;;;;6062679;23;20616;-68
2022/09/17 07:37:46;;;;;;;;;;;18.80;47.30;;;;;;6062259;23;19996;-69
2022/09/17 07:42:38;;;;;;;;;;;18.70;47.40;;;;;;6087904;23;19981;-69
2022/09/17 07:45:05;;;;;;;;;;;18.60;46.80;;;;;;6117966;23;20293;-70
2022/09/17 07:47:32;;;;;;;;;;;18.50;47.20;;;;;;6067881;23;19956;-69
2022/09/17 07:49:58;;;;;;;;;;;18.50;47.00;;;;;;6118341;23;19917;-69
2022/09/17 07:52:25;;;;;;;;;;;18.40;46.90;;;;;;6117920;23;19939;-69
2022/09/17 07:54:51;;;;;;;;;;;18.40;47.10;;;;;;6092890;23;19909;-69
2022/09/17 07:57:18;;;;;;;;;;;18.30;47.40;;;;;;6119596;23;19909;-69
2022/09/17 07:59:44;;;;;;;;;;;18.30;47.40;;;;;;6092476;23;19905;-68
2022/09/17 08:02:12;;;;;;;;;;;18.20;47.60;;;;;;6119432;23;19909;-69
2022/09/17 08:04:38;;;;;;;;;;;18.20;47.70;;;;;;6119311;23;20236;-69
2022/09/17 08:07:05;;;;;;;;;;;18.20;48.40;;;;;;6119879;23;20248;-69
2022/09/17 08:09:32;;;;;;;;;;;18.10;47.90;;;;;;6120819;23;19917;-69
2022/09/17 08:11:58;;;;;;;;;;;18.00;48.10;;;;;;6120159;23;19913;-69
2022/09/17 08:14:25;;;;;;;;;;;18.00;48.60;;;;;;6119934;23;19932;-69
2022/09/17 08:16:52;;;;;;;;;;;17.90;48.60;;;;;;6119988;23;19927;-70
2022/09/17 08:19:19;;;;;;;;;;;17.90;49.40;;;;;;6120471;23;19920;-70
2022/09/17 08:21:45;;;;;;;;;;;17.90;49.90;;;;;;6122556;23;19912;-70
2022/09/17 08:24:12;;;;;;;;;;;17.80;50.30;;;;;;6123686;23;19951;-71
2022/09/17 08:26:40;;;;;;;;;;;17.80;50.40;;;;;;6116702;23;19916;-70
2022/09/17 08:29:06;;;;;;;;;;;17.70;50.70;;;;;;6121692;23;20272;-70
2022/09/17 08:31:33;;;;;;;;;;;17.70;51.20;;;;;;6121662;23;20316;-68
2022/09/17 08:34:00;;;;;;;;;;;17.70;51.70;;;;;;6123231;23;20013;-68
2022/09/17 08:36:27;;;;;;;;;;;17.70;51.70;;;;;;6120493;23;20288;-69
2022/09/17 08:38:53;;;;;;;;;;;17.60;51.90;;;;;;6124010;23;19909;-69
2022/09/17 08:41:26;;;;;;;;;;;17.60;51.90;;;;;;6122644;23;19909;-69
2022/09/17 08:44:02;;;;;;;;;;;17.50;51.50;;;;;;6123245;23;20248;-68
2022/09/17 08:46:30;;;;;;;;;;;17.50;51.00;;;;;;6123272;23;19951;-69
2022/09/17 08:49:15;;;;;;;;;;;17.50;50.90;;;;;;6123217;23;19949;-70
2022/09/17 08:51:50;;;;;;;;;;;17.50;50.60;;;;;;6123150;23;19992;-69
2022/09/17 08:54:35;;;;;;;;;;;17.50;50.90;;;;;;6096990;23;19909;-68
2022/09/17 08:57:20;;;;;;;;;;;17.50;51.10;;;;;;6123220;23;19908;-69
2022/09/17 08:59:53;;;;;;;;;;;17.30;51.10;;;;;;6123747;23;19913;-69
2022/09/17 09:02:22;;;;;;;;;;;17.30;51.50;;;;;;6097990;23;19913;-69
2022/09/17 09:04:52;;;;;;;;;;;17.30;50.80;;;;;;6121140;23;19932;-69
2022/09/17 09:07:23;;;;;;;;;;;17.30;50.50;;;;;;6122700;23;19976;-68
2022/09/17 09:09:56;;;;;;;;;;;17.30;50.70;;;;;;6097246;23;19964;-67
2022/09/17 09:12:23;;;;;;;;;;;17.20;51.40;;;;;;6123329;23;19905;-70
2022/09/17 09:14:57;;;;;;;;;;;17.30;51.30;;;;;;6123153;23;20333;-70
2022/09/17 09:17:25;;;;;;;;;;;17.30;51.20;;;;;;6096914;23;19909;-67
2022/09/17 09:19:53;;;;;;;;;;;17.20;51.40;;;;;;6096033;23;19917;-68
2022/09/17 09:22:26;;;;;;;;;;;17.20;51.60;;;;;;6123015;23;19905;-67
2022/09/17 09:25:01;;;;;;;;;;;17.20;52.10;;;;;;6122566;23;19936;-68
2022/09/17 09:27:28;;;;;;;;;;;17.20;51.70;;;;;;6122803;23;20355;-67
2022/09/17 09:30:02;;;;;;;;;;;17.10;51.70;;;;;;6096564;23;19921;-67
2022/09/17 10:42:46;;;;;;;;;;;16.70;53.30;;;;;;6093805;23;19931;-68
2022/09/17 10:45:29;;;;;;;;;;;16.70;53.30;;;;;;6066872;23;19913;-69
2022/09/17 10:47:56;;;;;;;;;;;16.50;52.90;;;;;;6067491;23;19988;-67
2022/09/17 10:50:24;;;;;;;;;;;16.50;52.20;;;;;;6068187;23;19917;-69
2022/09/17 10:52:54;;;;;;;;;;;16.60;52.30;;;;;;6067697;23;19916;-68
2022/09/17 10:55:33;;;;;;;;;;;16.50;51.90;;;;;;6067661;23;19917;-70
2022/09/17 10:58:08;;;;;;;;;;;16.50;52.40;;;;;;6092875;23;19961;-69
2022/09/17 11:00:51;;;;;;;;;;;16.50;52.50;;;;;;6093233;23;20342;-69
2022/09/17 11:03:27;;;;;;;;;;;16.50;52.40;;;;;;6093055;23;19909;-68
2022/09/17 11:06:03;;;;;;;;;;;16.50;51.90;;;;;;6092993;23;19913;-69
2022/09/17 11:08:34;;;;;;;;;;;16.50;52.00;;;;;;6092829;23;20552;-71
2022/09/17 11:11:18;;;;;;;;;;;16.50;52.40;;;;;;6067772;23;20325;-70
2022/09/17 11:14:00;;;;;;;;;;;16.40;52.70;;;;;;6093104;23;19909;-69
2022/09/17 11:16:32;;;;;;;;;;;16.40;52.60;;;;;;6067613;23;19909;-68
2022/09/17 11:19:02;;;;;;;;;;;16.40;53.30;;;;;;6093032;23;19913;-68
2022/09/17 11:21:31;;;;;;;;;;;16.40;52.80;;;;;;6092503;23;19936;-68
2022/09/17 11:24:04;;;;;;;;;;;16.40;52.80;;;;;;6092721;23;20328;-70
2022/09/17 11:26:44;;;;;;;;;;;16.30;52.80;;;;;;6090222;23;19910;-71
2022/09/17 11:29:29;;;;;;;;;;;16.30;53.00;;;;;;6092482;23;19918;-70
2022/09/17 11:32:02;;;;;;;;;;;16.30;52.30;;;;;;6066227;23;20375;-70
2022/09/17 11:34:29;;;;;;;;;;;16.20;52.60;;;;;;6067508;23;20333;-68
2022/09/17 11:37:09;;;;;;;;;;;16.20;52.10;;;;;;6092461;23;19992;-72
2022/09/17 11:39:47;;;;;;;;;;;16.20;52.30;;;;;;6067429;23;19913;-70
2022/09/17 11:54:42;;;;;;;;;;;16.20;52.20;;;;;;6112551;23;19931;-68
2022/09/17 11:57:12;;;;;;;;;;;16.20;51.80;;;;;;6119667;23;19991;-72
2022/09/17 11:59:49;;;;;;;;;;;16.20;51.70;;;;;;6121428;23;19916;-72
2022/09/17 12:02:16;;;;;;;;;;;16.20;51.60;;;;;;6095927;23;19905;-72
2022/09/17 12:04:48;;;;;;;;;;;16.20;51.70;;;;;;6121313;23;19960;-72
2022/09/17 12:07:21;;;;;;;;;;;16.20;51.50;;;;;;6123842;23;19904;-73
2022/09/17 12:09:49;;;;;;;;;;;16.20;51.60;;;;;;6124794;23;19924;-72
2022/09/17 12:12:20;;;;;;;;;;;16.20;51.50;;;;;;6099293;23;19932;-72
2022/09/17 12:14:49;;;;;;;;;;;16.20;51.60;;;;;;6099069;23;19905;-72
2022/09/17 12:17:37;;;;;;;;;;;16.20;51.50;;;;;;6124741;23;19984;-72
2022/09/17 12:20:08;;;;;;;;;;;16.10;51.90;;;;;;6124336;23;19905;-72
2022/09/17 12:22:37;;;;;;;;;;;16.10;51.70;;;;;;6124282;23;19901;-72
2022/09/17 12:25:05;;;;;;;;;;;16.10;52.00;;;;;;6099187;23;19909;-72
2022/09/17 12:27:37;;;;;;;;;;;16.10;51.90;;;;;;6124342;23;19920;-71
2022/09/17 12:30:14;;;;;;;;;;;16.00;52.20;;;;;;6124606;23;19913;-71
2022/09/17 12:32:47;;;;;;;;;;;16.00;52.30;;;;;;6099056;23;19928;-72
2022/09/17 12:35:17;;;;;;;;;;;16.00;52.30;;;;;;6124828;23;19905;-72
2022/09/17 12:37:46;;;;;;;;;;;16.00;52.60;;;;;;6124607;23;19905;-72
2022/09/17 12:40:31;;;;;;;;;;;16.00;52.80;;;;;;6124566;23;20070;-72
2022/09/17 12:42:58;;;;;;;;;;;16.00;52.80;;;;;;6124965;23;19913;-72
2022/09/17 12:45:27;;;;;;;;;;;16.00;52.90;;;;;;6124587;23;20339;-74
2022/09/17 12:47:54;;;;;;;;;;;16.00;52.80;;;;;;6124361;23;19916;-72
2022/09/17 12:50:33;;;;;;;;;;;16.00;52.60;;;;;;6124769;23;19905;-71
2022/09/17 12:53:09;;;;;;;;;;;16.00;53.10;;;;;;6098766;23;19905;-72
2022/09/17 12:55:39;;;;;;;;;;;16.00;53.00;;;;;;6124338;23;19921;-71
2022/09/17 12:58:07;;;;;;;;;;;16.00;52.30;;;;;;6098829;23;19905;-72
2022/09/17 13:00:37;;;;;;;;;;;16.00;52.10;;;;;;6099290;23;19979;-72
2022/09/17 13:03:19;;;;;;;;;;;16.00;52.00;;;;;;6124948;23;19909;-72
2022/09/17 13:05:53;;;;;;;;;;;16.00;52.00;;;;;;6124535;23;19912;-72
2022/09/17 13:08:38;;;;;;;;;;;16.00;52.10;;;;;;6125214;23;19991;-72
2022/09/17 13:11:23;;;;;;;;;;;16.00;51.70;;;;;;6126742;23;20345;-72
2022/09/17 13:14:13;;;;;;;;;;;16.00;52.00;;;;;;6126346;23;19905;-72
2022/09/17 13:16:54;;;;;;;;;;;16.00;51.70;;;;;;6097830;23;19909;-72
2022/09/17 13:19:20;;;;;;;;;;;16.00;51.70;;;;;;6076715;23;19904;-71
2022/09/17 13:21:56;;;;;;;;;;;16.00;51.90;;;;;;6126561;23;20217;-72
2022/09/17 13:24:27;;;;;;;;;;;16.00;51.60;;;;;;6126805;23;19941;-72
2022/09/17 13:26:54;;;;;;;;;;;16.00;51.70;;;;;;6101948;23;19905;-74
2022/09/17 13:29:38;;;;;;;;;;;16.00;51.60;;;;;;6126539;23;20391;-72
2022/09/17 13:32:05;;;;;;;;;;;15.90;51.90;;;;;;6126426;23;20285;-72
2022/09/17 13:34:34;;;;;;;;;;;16.00;52.00;;;;;;6126227;23;20240;-72
2022/09/17 13:37:04;;;;;;;;;;;16.00;51.80;;;;;;6123067;23;19988;-71
2022/09/17 13:39:39;;;;;;;;;;;15.90;51.90;;;;;;6124414;23;19909;-71
2022/09/17 13:42:08;;;;;;;;;;;15.90;52.20;;;;;;6125453;23;20321;-72
2022/09/17 13:44:35;;;;;;;;;;;15.90;52.20;;;;;;6126557;23;19905;-71
2022/09/17 13:47:12;;;;;;;;;;;15.90;52.70;;;;;;6125070;23;20307;-72
2022/09/17 13:49:46;;;;;;;;;;;15.80;52.40;;;;;;6099934;23;19988;-72
2022/09/17 13:52:13;;;;;;;;;;;15.80;52.60;;;;;;6099856;23;20258;-72
2022/09/17 13:54:39;;;;;;;;;;;15.80;52.70;;;;;;6125379;23;20246;-72
2022/09/17 13:57:09;;;;;;;;;;;15.80;52.90;;;;;;6125653;23;19916;-72
2022/09/17 13:59:36;;;;;;;;;;;15.80;52.80;;;;;;6125569;23;20329;-72
2022/09/17 14:02:17;;;;;;;;;;;15.80;52.40;;;;;;6125784;23;19924;-72
2022/09/17 14:04:45;;;;;;;;;;;15.90;53.10;;;;;;6125464;23;19912;-72
2022/09/17 14:07:22;;;;;;;;;;;15.80;52.30;;;;;;6122301;23;20241;-71
2022/09/17 14:09:48;;;;;;;;;;;15.80;52.10;;;;;;6125021;23;20380;-72
2022/09/17 14:12:33;;;;;;;;;;;15.80;52.20;;;;;;6125465;23;20020;-72
2022/09/17 14:15:00;;;;;;;;;;;15.80;52.30;;;;;;6125573;23;19933;-71
2022/09/17 14:17:45;;;;;;;;;;;15.80;52.20;;;;;;6125590;23;19941;-71
2022/09/17 14:20:11;;;;;;;;;;;15.80;52.20;;;;;;6125518;23;19912;-72
2022/09/17 14:22:38;;;;;;;;;;;15.80;52.30;;;;;;6125355;23;19909;-71
2022/09/17 14:25:13;;;;;;;;;;;15.80;51.80;;;;;;6125615;23;19905;-72
2022/09/17 14:27:46;;;;;;;;;;;15.70;52.50;;;;;;6099441;23;19912;-71
2022/09/17 14:30:22;;;;;;;;;;;15.70;52.20;;;;;;6099469;23;19955;-71
2022/09/17 14:32:51;;;;;;;;;;;15.70;52.80;;;;;;6099640;23;20264;-71
2022/09/17 14:35:22;;;;;;;;;;;15.70;52.50;;;;;;6124410;23;19905;-72
2022/09/17 14:37:53;;;;;;;;;;;15.70;52.40;;;;;;6122998;23;19916;-72
2022/09/17 14:40:20;;;;;;;;;;;15.70;52.20;;;;;;6099105;23;19909;-72
2022/09/17 14:42:47;;;;;;;;;;;15.70;52.40;;;;;;6125169;23;19932;-71
2022/09/17 14:45:19;;;;;;;;;;;15.70;52.00;;;;;;6099447;23;20221;-72
2022/09/17 14:47:45;;;;;;;;;;;15.70;52.10;;;;;;6124891;23;19909;-71
2022/09/17 14:50:21;;;;;;;;;;;15.70;52.30;;;;;;6124532;23;20289;-73
2022/09/17 14:52:48;;;;;;;;;;;15.70;52.20;;;;;;6124242;23;19909;-73
2022/09/17 14:55:19;;;;;;;;;;;15.70;51.80;;;;;;6124316;23;19925;-73
2022/09/17 14:57:47;;;;;;;;;;;15.70;51.60;;;;;;6124390;23;19909;-73
2022/09/17 15:00:24;;;;;;;;;;;15.80;52.00;;;;;;6099002;23;19909;-73
2022/09/17 15:02:51;;;;;;;;;;;15.70;52.40;;;;;;6124201;23;19912;-73
2022/09/17 15:05:19;;;;;;;;;;;15.70;52.10;;;;;;6124440;23;20043;-73
2022/09/17 15:07:45;;;;;;;;;;;15.70;52.70;;;;;;6072435;23;19909;-73
2022/09/17 15:10:16;;;;;;;;;;;15.70;52.40;;;;;;6099104;23;19955;-73
2022/09/17 15:12:43;;;;;;;;;;;15.70;52.50;;;;;;6124681;23;19905;-73
2022/09/17 15:15:17;;;;;;;;;;;15.70;52.50;;;;;;6098566;23;19905;-73
2022/09/17 15:17:43;;;;;;;;;;;15.70;52.50;;;;;;6099375;23;20305;-73
2022/09/17 15:20:12;;;;;;;;;;;15.70;52.70;;;;;;6125144;23;19968;-73
2022/09/17 15:22:38;;;;;;;;;;;15.70;52.30;;;;;;6099096;23;19909;-73
2022/09/17 15:25:06;;;;;;;;;;;15.70;52.20;;;;;;6099416;23;19917;-73
2022/09/17 15:27:36;;;;;;;;;;;15.70;52.40;;;;;;6099504;23;20356;-73
2022/09/17 15:30:06;;;;;;;;;;;15.70;52.10;;;;;;6098655;23;19952;-73
2022/09/17 15:32:32;;;;;;;;;;;15.70;52.20;;;;;;6125067;23;20273;-73
2022/09/17 15:35:11;;;;;;;;;;;15.70;52.50;;;;;;6098930;23;19909;-73
2022/09/17 15:45:41;;;;;;;;;;;15.70;53.10;;;;;;6094369;23;19930;-73
2022/09/17 15:48:25;;;;;;;;;;;15.70;53.60;;;;;;6095317;23;19949;-73
2022/09/17 15:50:53;;;;;;;;;;;15.60;53.80;;;;;;6095586;23;20237;-73
2022/09/17 15:53:23;;;;;;;;;;;15.60;53.50;;;;;;6095516;23;19906;-73
2022/09/17 15:56:00;;;;;;;;;;;15.60;53.00;;;;;;6096344;23;19984;-73
2022/09/17 15:58:28;;;;;;;;;;;15.60;53.40;;;;;;6095480;23;19905;-73
2022/09/17 16:01:13;;;;;;;;;;;15.60;53.40;;;;;;6069834;23;19913;-74
2022/09/17 16:03:39;;;;;;;;;;;15.60;53.20;;;;;;6095742;23;19957;-73
2022/09/17 16:06:21;;;;;;;;;;;15.60;53.20;;;;;;6095698;23;19940;-73
2022/09/17 16:08:48;;;;;;;;;;;15.70;53.00;;;;;;6095278;23;20325;-73
2022/09/17 16:11:15;;;;;;;;;;;15.60;53.40;;;;;;6095634;23;20282;-73
2022/09/17 16:13:42;;;;;;;;;;;15.70;53.10;;;;;;6070063;23;19905;-73
2022/09/17 16:16:10;;;;;;;;;;;15.60;53.50;;;;;;6094487;23;19913;-73
2022/09/17 16:18:37;;;;;;;;;;;15.60;53.50;;;;;;6070389;23;19968;-73
2022/09/17 16:21:03;;;;;;;;;;;15.70;53.80;;;;;;6095274;23;19976;-73
2022/09/17 16:23:30;;;;;;;;;;;15.60;53.90;;;;;;6095003;23;19905;-73
2022/09/17 16:25:57;;;;;;;;;;;15.60;54.10;;;;;;6095797;23;19980;-73
2022/09/17 16:28:23;;;;;;;;;;;15.60;54.10;;;;;;6070138;23;19913;-73
2022/09/17 16:30:50;;;;;;;;;;;15.60;54.20;;;;;;6095742;23;19980;-73
2022/09/17 16:33:17;;;;;;;;;;;15.60;54.00;;;;;;6069780;23;19905;-73
2022/09/17 16:35:43;;;;;;;;;;;15.60;53.90;;;;;;6094488;23;19960;-73
2022/09/17 16:38:10;;;;;;;;;;;15.60;54.10;;;;;;6095377;23;19984;-73
2022/09/17 16:40:40;;;;;;;;;;;15.70;53.90;;;;;;6096046;23;19906;-72
2022/09/17 16:43:07;;;;;;;;;;;15.60;54.40;;;;;;6095316;23;20248;-73
2022/09/17 16:45:34;;;;;;;;;;;15.60;54.20;;;;;;6105385;23;19929;-72
2022/09/17 16:48:01;;;;;;;;;;;15.60;54.50;;;;;;6126373;23;19928;-73
2022/09/17 16:50:27;;;;;;;;;;;15.70;54.20;;;;;;6126453;23;19909;-73
2022/09/17 16:52:54;;;;;;;;;;;15.60;54.60;;;;;;6126317;23;19905;-73
2022/09/17 16:55:20;;;;;;;;;;;15.50;54.90;;;;;;6126133;23;19905;-73
2022/09/17 16:57:47;;;;;;;;;;;15.60;55.80;;;;;;6126804;23;19909;-73
2022/09/17 17:00:16;;;;;;;;;;;15.50;55.10;;;;;;6126520;23;19911;-73
2022/09/17 17:02:43;;;;;;;;;;;15.50;55.50;;;;;;6126519;23;19941;-73
2022/09/17 17:05:12;;;;;;;;;;;15.50;55.80;;;;;;6126342;23;19905;-73
2022/09/17 17:07:39;;;;;;;;;;;15.40;55.80;;;;;;6126581;23;19987;-73
2022/09/17 17:10:07;;;;;;;;;;;15.40;55.50;;;;;;6126375;23;19913;-73
2022/09/17 17:12:35;;;;;;;;;;;15.40;56.10;;;;;;6126225;23;19905;-73
2022/09/17 17:15:04;;;;;;;;;;;15.40;56.20;;;;;;6125737;23;19928;-73
2022/09/17 17:17:31;;;;;;;;;;;15.40;56.10;;;;;;6123962;23;19905;-73
2022/09/17 17:19:58;;;;;;;;;;;15.30;56.90;;;;;;6126138;23;20214;-73
2022/09/17 17:22:25;;;;;;;;;;;15.30;57.00;;;;;;6100378;23;19936;-73
2022/09/17 17:24:52;;;;;;;;;;;15.30;56.60;;;;;;6125760;23;19954;-73
2022/09/17 17:27:18;;;;;;;;;;;15.30;56.80;;;;;;6125547;23;19911;-73
2022/09/17 17:29:45;;;;;;;;;;;15.30;57.10;;;;;;6126041;23;19912;-72
2022/09/17 17:32:12;;;;;;;;;;;15.30;57.50;;;;;;6125774;23;19905;-73
2022/09/17 17:34:38;;;;;;;;;;;15.20;57.80;;;;;;6126487;23;19912;-73
2022/09/17 17:37:05;;;;;;;;;;;15.20;57.90;;;;;;6126538;23;19984;-72
2022/09/17 17:39:31;;;;;;;;;;;15.10;58.30;;;;;;6126153;23;19905;-73
2022/09/17 17:41:58;;;;;;;;;;;15.10;58.60;;;;;;6126445;23;19912;-73
2022/09/17 17:44:24;;;;;;;;;;;15.00;59.10;;;;;;6125584;23;19905;-73
2022/09/17 17:46:51;;;;;;;;;;;15.00;59.70;;;;;;6123994;23;19972;-73
2022/09/17 17:49:18;;;;;;;;;;;14.90;59.90;;;;;;6126017;23;19917;-73
2022/09/17 17:51:44;;;;;;;;;;;14.80;59.90;;;;;;6125815;23;20249;-72
2022/09/17 17:54:11;;;;;;;;;;;14.80;60.30;;;;;;6125802;23;19905;-72
2022/09/17 17:56:37;;;;;;;;;;;14.80;60.00;;;;;;6125625;23;19913;-73
2022/09/17 17:59:04;;;;;;;;;;;14.80;60.70;;;;;;6126152;23;19912;-72
2022/09/17 18:01:33;;;;;;;;;;;14.70;60.00;;;;;;6126163;23;19936;-73
2022/09/17 18:04:01;;;;;;;;;;;14.70;60.40;;;;;;6125200;23;19959;-73
2022/09/17 18:06:27;;;;;;;;;;;14.60;60.40;;;;;;6125453;23;19965;-72
2022/09/17 18:08:54;;;;;;;;;;;14.70;60.80;;;;;;6100287;23;19912;-73
2022/09/17 18:11:21;;;;;;;;;;;14.60;61.00;;;;;;6126038;23;19991;-73
2022/09/17 18:13:51;;;;;;;;;;;14.60;61.50;;;;;;6126323;23;19909;-72
2022/09/17 18:16:17;;;;;;;;;;;14.50;62.00;;;;;;6124806;23;20329;-72
2022/09/17 18:18:44;;;;;;;;;;;14.50;61.80;;;;;;6125015;23;19976;-73
2022/09/17 18:21:12;;;;;;;;;;;14.40;61.50;;;;;;6123986;23;19916;-73
2022/09/17 18:23:39;;;;;;;;;;;14.40;61.70;;;;;;6099884;23;19905;-72
2022/09/17 18:26:06;;;;;;;;;;;14.30;62.40;;;;;;6099379;23;19905;-72
2022/09/17 18:28:33;;;;;;;;;;;14.30;62.70;;;;;;6125022;23;20342;-73
2022/09/17 18:31:06;;;;;;;;;;;14.30;63.30;;;;;;6125525;23;19985;-72
2022/09/17 18:33:33;;;;;;;;;;;14.30;62.90;;;;;;6099781;23;19989;-72
2022/09/17 18:36:00;;;;;;;;;;;14.30;63.20;;;;;;6099677;23;19909;-73
2022/09/17 18:38:27;;;;;;;;;;;14.20;62.10;;;;;;6125079;23;19904;-73
2022/09/17 18:40:54;;;;;;;;;;;14.20;62.10;;;;;;6099445;23;20000;-73
2022/09/17 18:43:20;;;;;;;;;;;14.20;62.50;;;;;;6125512;23;19909;-71
2022/09/17 18:50:38;;;;;;;;;;;14.20;64.20;;;;;;6123372;23;19921;-72
2022/09/17 18:53:05;;;;;;;;;;;14.20;64.80;;;;;;6125853;23;20331;-73
2022/09/17 18:55:31;;;;;;;;;;;14.10;65.20;;;;;;6125048;23;19905;-72
2022/09/17 18:57:58;;;;;;;;;;;14.10;65.40;;;;;;6124189;23;19952;-72
2022/09/17 19:00:25;;;;;;;;;;;14.10;64.60;;;;;;6124824;23;19915;-73
2022/09/17 19:02:51;;;;;;;;;;;14.20;64.90;;;;;;6125218;23;19909;-71
2022/09/17 19:05:18;;;;;;;;;;;14.20;64.90;;;;;;6120388;23;19909;-73
2022/09/17 19:07:48;;;;;;;;;;;14.20;65.10;;;;;;6121643;23;19909;-74
2022/09/17 19:10:14;;;;;;;;;;;14.20;64.70;;;;;;6120941;23;19951;-74
2022/09/17 19:12:41;;;;;;;;;;;14.20;64.90;;;;;;6121845;23;19908;-74
2022/09/17 19:15:08;;;;;;;;;;;14.20;65.10;;;;;;6121231;23;19912;-73
2022/09/17 19:17:35;;;;;;;;;;;14.20;65.90;;;;;;6120959;23;19912;-74
2022/09/17 19:20:02;;;;;;;;;;;14.20;66.00;;;;;;6120741;23;19919;-74
2022/09/17 19:22:28;;;;;;;;;;;14.20;66.00;;;;;;6119297;23;19913;-74
2022/09/17 19:24:55;;;;;;;;;;;14.10;66.60;;;;;;6120139;23;19905;-73
2022/09/17 19:27:21;;;;;;;;;;;14.10;66.20;;;;;;6121418;23;19908;-74
2022/09/17 19:29:48;;;;;;;;;;;14.10;66.10;;;;;;6121307;23;19917;-73
2022/09/17 19:32:15;;;;;;;;;;;14.00;66.30;;;;;;6121719;23;19912;-73
2022/09/17 19:34:41;;;;;;;;;;;13.90;66.50;;;;;;6121368;23;19913;-73
2022/09/17 19:37:08;;;;;;;;;;;13.80;66.90;;;;;;6121419;23;20289;-72
2022/09/17 19:39:34;;;;;;;;;;;13.80;66.80;;;;;;6094886;23;19935;-72
2022/09/17 19:42:01;;;;;;;;;;;13.80;67.10;;;;;;6121443;23;19912;-71
2022/09/17 19:44:28;;;;;;;;;;;13.80;66.70;;;;;;6121339;23;19908;-72
2022/09/17 19:46:55;;;;;;;;;;;13.80;67.50;;;;;;6121618;23;20232;-72